KFULKSQL

Guest
Details From KFUL - Fullerton Muni
To KSQL - San Carlos
Flight Number -
Tags decoded
Created
Modified
Stats Distance 325 nm / 601 km
Max Altitude 0 ft / 0 m
Waypoints 9
Social Downloads 9
Likes 0
Share

Download

Looking for another format? Having issues loading an existing format? Contact us
Advertisement - Login to hide

Notes

Requested: KFUL VPLSR SMO VTU GVO PRB CA88 SNS KSQL

Route

KFUL VPLSR SMO VTU GVO PRB CA88 SNS KSQL

ID Type Via Altitude (ft/m) Position (lat/lon) Dist (leg/tot) Name
O KFUL APT - 0 / 0 33.87202 / -117.97980 - / 0 nm Fullerton Muni
VPLSR FIX - 0 / 0 33.88444 / -118.35222 18 / 18 nm
SMO VOR - 0 / 0 34.01025 / -118.45672 9 / 27 nm SANTA MONICA VOR-DME
VTU VOR - 0 / 0 34.11506 / -119.04950 30 / 57 nm VENTURA VOR-DME
GVO VOR - 0 / 0 34.53133 / -120.09108 57 / 115 nm GAVIOTA VORTAC
PRB VOR - 0 / 0 35.67247 / -120.62711 73 / 188 nm PASO ROBLES VORTAC
CA88 APT - 0 / 0 36.02608 / -120.90768 25 / 213 nm San Ardo Field
SNS VOR - 0 / 0 36.66383 / -121.60319 50 / 264 nm SALINAS VORTAC
O KSQL APT - 0 / 0 37.51173 / -122.24939 59 / 324 nm San Carlos

Altitude Profile

Advertisement - Login to hide

Weather


0- 5 10 15 20 25 30 35+ Temperature / °C

Clouds and Precipitation
Forecast for 2021-07-28 12:00 UTC. Updated 4 hours ago

Ground ~20,000 ft ~40,000 ft Winds

KFUL

Details ICAO KFUL (FUL)
Name Fullerton Muni
Region United States
Timezone America/Los_Angeles (UTC-7.0)
Stats Elevation 96 ft / 29 m (AMSL)
Location 33.872000° -117.980000°
Runways 1
Magnetic Variation 11.588° E

METAR

KFUL 281253Z AUTO VRB03KT 10SM CLR 19/17 A2999 RMK AO2 SLP155 T01940167

Decode

TAF

Not found

Departure Runways

ID Width Length Bearing (true/mag) Surface Threshold Overrun Markings Lighting
06 75 ft / 23 m 3,121 ft / 951 m 76.96° / 65.37° ASPHALT 430 ft / 131 m 0 ft / 0 m VISUAL EDGE THRESHOLD REIL-OMNI
24 75 ft / 23 m 3,121 ft / 951 m 256.96° / 245.37° ASPHALT 259 ft / 79 m 0 ft / 0 m VISUAL EDGE THRESHOLD REIL-OMNI

KSQL

Details ICAO KSQL (SQL)
Name San Carlos
Region United States
Timezone America/Los_Angeles (UTC-7.0)
Stats Elevation 4 ft / 1 m (AMSL)
Location 37.511900° -122.250000°
Runways 1
Magnetic Variation 13.074° E

METAR

KSQL 281335Z AUTO 00000KT 10SM CLR 15/12 A3004 RMK AO2

Decode

TAF

Not found

Destination Runways

ID Width Length Bearing (true/mag) Surface Threshold Overrun Markings Lighting
12 75 ft / 23 m 2,623 ft / 800 m 138.19° / 125.12° ASPHALT 0 ft / 0 m 299 ft / 91 m APP EDGE THRESHOLD REIL-UNI
30 75 ft / 23 m 2,623 ft / 800 m 318.20° / 305.12° ASPHALT 0 ft / 0 m 135 ft / 41 m APP EDGE THRESHOLD REIL-UNI